sensor_id;sensor_type;location;lat;lon;timestamp;P1;durP1;ratioP1;P2;durP2;ratioP2
31126;SDS011;17775;57.948;12.514;2024-03-06T00:02:08;1.77;;;1.40;;
31126;SDS011;17775;57.948;12.514;2024-03-06T00:04:35;1.80;;;1.20;;
31126;SDS011;17775;57.948;12.514;2024-03-06T00:07:01;2.10;;;1.20;;
31126;SDS011;17775;57.948;12.514;2024-03-06T00:09:28;1.70;;;1.10;;
31126;SDS011;17775;57.948;12.514;2024-03-06T00:11:55;1.83;;;1.13;;
31126;SDS011;17775;57.948;12.514;2024-03-06T00:14:21;2.10;;;1.20;;
31126;SDS011;17775;57.948;12.514;2024-03-06T00:16:48;1.50;;;1.00;;
31126;SDS011;17775;57.948;12.514;2024-03-06T00:19:18;1.70;;;1.20;;
31126;SDS011;17775;57.948;12.514;2024-03-06T00:21:45;1.80;;;1.10;;
31126;SDS011;17775;57.948;12.514;2024-03-06T00:24:11;1.83;;;1.15;;
31126;SDS011;17775;57.948;12.514;2024-03-06T00:26:41;1.95;;;1.30;;
31126;SDS011;17775;57.948;12.514;2024-03-06T00:29:08;1.95;;;1.13;;
31126;SDS011;17775;57.948;12.514;2024-03-06T00:31:42;1.58;;;1.27;;
31126;SDS011;17775;57.948;12.514;2024-03-06T00:34:09;2.83;;;1.30;;
31126;SDS011;17775;57.948;12.514;2024-03-06T00:36:35;1.55;;;1.05;;
31126;SDS011;17775;57.948;12.514;2024-03-06T00:39:02;1.50;;;1.00;;
31126;SDS011;17775;57.948;12.514;2024-03-06T00:41:31;2.03;;;1.20;;
31126;SDS011;17775;57.948;12.514;2024-03-06T00:43:57;1.50;;;0.93;;
31126;SDS011;17775;57.948;12.514;2024-03-06T00:46:24;2.13;;;1.33;;
31126;SDS011;17775;57.948;12.514;2024-03-06T00:48:50;1.95;;;1.08;;
31126;SDS011;17775;57.948;12.514;2024-03-06T00:51:16;1.48;;;1.00;;
31126;SDS011;17775;57.948;12.514;2024-03-06T00:56:13;1.77;;;1.02;;
31126;SDS011;17775;57.948;12.514;2024-03-06T00:58:40;1.67;;;0.93;;
31126;SDS011;17775;57.948;12.514;2024-03-06T01:01:06;1.30;;;0.95;;
31126;SDS011;17775;57.948;12.514;2024-03-06T01:03:33;1.67;;;0.90;;
31126;SDS011;17775;57.948;12.514;2024-03-06T01:05:59;1.55;;;0.90;;
31126;SDS011;17775;57.948;12.514;2024-03-06T01:08:26;0.98;;;0.70;;
31126;SDS011;17775;57.948;12.514;2024-03-06T01:10:52;1.60;;;0.90;;
31126;SDS011;17775;57.948;12.514;2024-03-06T01:13:19;1.02;;;0.70;;
31126;SDS011;17775;57.948;12.514;2024-03-06T01:15:46;1.20;;;1.00;;
31126;SDS011;17775;57.948;12.514;2024-03-06T01:18:12;1.00;;;0.77;;
31126;SDS011;17775;57.948;12.514;2024-03-06T01:20:39;1.25;;;0.88;;
31126;SDS011;17775;57.948;12.514;2024-03-06T01:23:07;1.30;;;0.80;;
31126;SDS011;17775;57.948;12.514;2024-03-06T01:25:33;1.77;;;1.00;;
31126;SDS011;17775;57.948;12.514;2024-03-06T01:28:00;2.05;;;1.02;;
31126;SDS011;17775;57.948;12.514;2024-03-06T01:30:26;1.45;;;0.90;;
31126;SDS011;17775;57.948;12.514;2024-03-06T01:32:52;1.70;;;1.20;;
31126;SDS011;17775;57.948;12.514;2024-03-06T01:35:19;2.13;;;1.23;;
31126;SDS011;17775;57.948;12.514;2024-03-06T01:37:46;2.30;;;1.38;;
31126;SDS011;17775;57.948;12.514;2024-03-06T01:40:12;2.40;;;1.50;;
31126;SDS011;17775;57.948;12.514;2024-03-06T01:42:39;2.72;;;1.85;;
31126;SDS011;17775;57.948;12.514;2024-03-06T01:45:05;2.35;;;1.30;;
31126;SDS011;17775;57.948;12.514;2024-03-06T01:47:33;2.40;;;1.58;;
31126;SDS011;17775;57.948;12.514;2024-03-06T01:50:00;1.83;;;1.20;;
31126;SDS011;17775;57.948;12.514;2024-03-06T01:52:28;2.05;;;1.20;;
31126;SDS011;17775;57.948;12.514;2024-03-06T01:54:55;2.03;;;1.33;;
31126;SDS011;17775;57.948;12.514;2024-03-06T01:57:22;2.40;;;1.27;;
31126;SDS011;17775;57.948;12.514;2024-03-06T01:59:49;1.73;;;1.27;;
31126;SDS011;17775;57.948;12.514;2024-03-06T02:02:16;2.42;;;1.48;;
31126;SDS011;17775;57.948;12.514;2024-03-06T02:04:43;1.42;;;1.10;;
31126;SDS011;17775;57.948;12.514;2024-03-06T02:07:09;2.40;;;1.50;;
31126;SDS011;17775;57.948;12.514;2024-03-06T02:09:39;2.08;;;1.35;;
31126;SDS011;17775;57.948;12.514;2024-03-06T02:12:06;2.00;;;1.40;;
31126;SDS011;17775;57.948;12.514;2024-03-06T02:14:35;2.42;;;1.33;;
31126;SDS011;17775;57.948;12.514;2024-03-06T02:17:03;2.53;;;1.40;;
31126;SDS011;17775;57.948;12.514;2024-03-06T02:19:40;2.65;;;1.30;;
31126;SDS011;17775;57.948;12.514;2024-03-06T02:22:07;1.80;;;1.23;;
31126;SDS011;17775;57.948;12.514;2024-03-06T02:24:34;1.83;;;1.20;;
31126;SDS011;17775;57.948;12.514;2024-03-06T02:27:00;1.38;;;1.00;;
31126;SDS011;17775;57.948;12.514;2024-03-06T02:29:27;2.72;;;1.30;;
31126;SDS011;17775;57.948;12.514;2024-03-06T02:31:53;3.58;;;1.85;;
31126;SDS011;17775;57.948;12.514;2024-03-06T02:34:20;1.75;;;1.10;;
31126;SDS011;17775;57.948;12.514;2024-03-06T02:36:47;1.50;;;1.00;;
31126;SDS011;17775;57.948;12.514;2024-03-06T02:39:13;3.50;;;1.42;;
31126;SDS011;17775;57.948;12.514;2024-03-06T02:41:40;1.83;;;1.30;;
31126;SDS011;17775;57.948;12.514;2024-03-06T02:44:07;1.90;;;1.17;;
31126;SDS011;17775;57.948;12.514;2024-03-06T02:46:34;1.83;;;1.30;;
31126;SDS011;17775;57.948;12.514;2024-03-06T02:49:00;1.98;;;1.17;;
31126;SDS011;17775;57.948;12.514;2024-03-06T02:51:27;1.92;;;1.33;;
31126;SDS011;17775;57.948;12.514;2024-03-06T02:53:53;1.90;;;1.10;;
31126;SDS011;17775;57.948;12.514;2024-03-06T02:56:20;2.13;;;1.10;;
31126;SDS011;17775;57.948;12.514;2024-03-06T02:58:47;1.33;;;0.93;;
31126;SDS011;17775;57.948;12.514;2024-03-06T03:01:13;1.52;;;1.00;;
31126;SDS011;17775;57.948;12.514;2024-03-06T03:03:40;1.33;;;1.00;;
31126;SDS011;17775;57.948;12.514;2024-03-06T03:06:07;1.77;;;1.30;;
31126;SDS011;17775;57.948;12.514;2024-03-06T03:08:37;2.03;;;1.33;;
31126;SDS011;17775;57.948;12.514;2024-03-06T03:11:03;2.13;;;1.25;;
31126;SDS011;17775;57.948;12.514;2024-03-06T03:13:30;1.73;;;1.02;;
31126;SDS011;17775;57.948;12.514;2024-03-06T03:16:00;1.92;;;1.35;;
31126;SDS011;17775;57.948;12.514;2024-03-06T03:18:28;1.95;;;1.15;;
31126;SDS011;17775;57.948;12.514;2024-03-06T03:20:54;1.83;;;1.27;;
31126;SDS011;17775;57.948;12.514;2024-03-06T03:23:23;1.25;;;0.90;;
31126;SDS011;17775;57.948;12.514;2024-03-06T03:25:50;1.80;;;1.23;;
31126;SDS011;17775;57.948;12.514;2024-03-06T03:28:16;1.65;;;1.17;;
31126;SDS011;17775;57.948;12.514;2024-03-06T03:30:43;2.00;;;1.05;;
31126;SDS011;17775;57.948;12.514;2024-03-06T03:33:10;1.63;;;1.00;;
31126;SDS011;17775;57.948;12.514;2024-03-06T03:35:37;2.08;;;1.15;;
31126;SDS011;17775;57.948;12.514;2024-03-06T03:38:04;1.52;;;1.00;;
31126;SDS011;17775;57.948;12.514;2024-03-06T03:40:33;1.92;;;1.17;;
31126;SDS011;17775;57.948;12.514;2024-03-06T03:43:00;1.40;;;1.00;;
31126;SDS011;17775;57.948;12.514;2024-03-06T03:45:32;1.50;;;0.90;;
31126;SDS011;17775;57.948;12.514;2024-03-06T03:48:03;1.42;;;0.90;;
31126;SDS011;17775;57.948;12.514;2024-03-06T03:50:30;1.25;;;0.93;;
31126;SDS011;17775;57.948;12.514;2024-03-06T03:52:59;0.85;;;0.70;;
31126;SDS011;17775;57.948;12.514;2024-03-06T03:55:27;1.00;;;0.70;;
31126;SDS011;17775;57.948;12.514;2024-03-06T03:57:54;1.45;;;0.95;;
31126;SDS011;17775;57.948;12.514;2024-03-06T04:00:20;1.35;;;0.98;;
31126;SDS011;17775;57.948;12.514;2024-03-06T04:02:48;1.83;;;0.80;;
31126;SDS011;17775;57.948;12.514;2024-03-06T04:05:15;1.02;;;0.80;;
31126;SDS011;17775;57.948;12.514;2024-03-06T04:07:45;1.60;;;0.88;;
31126;SDS011;17775;57.948;12.514;2024-03-06T04:10:12;1.48;;;0.90;;
31126;SDS011;17775;57.948;12.514;2024-03-06T04:12:38;1.40;;;0.80;;
31126;SDS011;17775;57.948;12.514;2024-03-06T04:15:05;1.38;;;0.90;;
31126;SDS011;17775;57.948;12.514;2024-03-06T04:17:33;1.73;;;1.15;;
31126;SDS011;17775;57.948;12.514;2024-03-06T04:20:00;1.63;;;1.00;;
31126;SDS011;17775;57.948;12.514;2024-03-06T04:22:26;1.25;;;0.88;;
31126;SDS011;17775;57.948;12.514;2024-03-06T04:24:56;1.20;;;0.80;;
31126;SDS011;17775;57.948;12.514;2024-03-06T04:27:25;1.33;;;0.90;;
31126;SDS011;17775;57.948;12.514;2024-03-06T04:29:52;0.82;;;0.77;;
31126;SDS011;17775;57.948;12.514;2024-03-06T04:32:18;1.02;;;0.70;;
31126;SDS011;17775;57.948;12.514;2024-03-06T04:34:45;1.50;;;0.80;;
31126;SDS011;17775;57.948;12.514;2024-03-06T04:37:12;2.50;;;1.25;;
31126;SDS011;17775;57.948;12.514;2024-03-06T04:39:39;1.63;;;0.95;;
31126;SDS011;17775;57.948;12.514;2024-03-06T04:42:07;2.65;;;1.55;;
31126;SDS011;17775;57.948;12.514;2024-03-06T04:44:34;2.42;;;1.40;;
31126;SDS011;17775;57.948;12.514;2024-03-06T04:47:01;2.00;;;1.20;;
31126;SDS011;17775;57.948;12.514;2024-03-06T04:49:28;1.73;;;1.27;;
31126;SDS011;17775;57.948;12.514;2024-03-06T04:51:54;1.30;;;0.95;;
31126;SDS011;17775;57.948;12.514;2024-03-06T04:54:21;1.60;;;1.00;;
31126;SDS011;17775;57.948;12.514;2024-03-06T04:56:47;1.63;;;1.02;;
31126;SDS011;17775;57.948;12.514;2024-03-06T04:59:17;1.80;;;1.10;;
31126;SDS011;17775;57.948;12.514;2024-03-06T05:01:43;2.15;;;1.42;;
31126;SDS011;17775;57.948;12.514;2024-03-06T05:04:10;2.00;;;1.20;;
31126;SDS011;17775;57.948;12.514;2024-03-06T05:06:55;2.08;;;1.20;;
31126;SDS011;17775;57.948;12.514;2024-03-06T05:09:39;2.40;;;1.40;;
31126;SDS011;17775;57.948;12.514;2024-03-06T05:12:25;2.35;;;1.35;;
31126;SDS011;17775;57.948;12.514;2024-03-06T05:15:09;2.42;;;1.40;;
31126;SDS011;17775;57.948;12.514;2024-03-06T05:17:53;2.03;;;1.30;;
31126;SDS011;17775;57.948;12.514;2024-03-06T05:20:39;1.92;;;1.10;;
31126;SDS011;17775;57.948;12.514;2024-03-06T05:23:23;2.20;;;1.10;;
31126;SDS011;17775;57.948;12.514;2024-03-06T05:26:07;1.65;;;1.15;;
31126;SDS011;17775;57.948;12.514;2024-03-06T05:28:51;2.50;;;1.30;;
31126;SDS011;17775;57.948;12.514;2024-03-06T05:31:35;1.63;;;1.10;;
31126;SDS011;17775;57.948;12.514;2024-03-06T05:34:19;2.03;;;0.88;;
31126;SDS011;17775;57.948;12.514;2024-03-06T05:37:02;1.52;;;1.00;;
31126;SDS011;17775;57.948;12.514;2024-03-06T05:39:47;2.30;;;1.10;;
31126;SDS011;17775;57.948;12.514;2024-03-06T05:42:31;1.50;;;1.08;;
31126;SDS011;17775;57.948;12.514;2024-03-06T05:45:15;2.30;;;1.20;;
31126;SDS011;17775;57.948;12.514;2024-03-06T05:47:59;1.65;;;1.10;;
31126;SDS011;17775;57.948;12.514;2024-03-06T05:50:46;2.08;;;1.42;;
31126;SDS011;17775;57.948;12.514;2024-03-06T05:53:30;1.70;;;1.10;;
31126;SDS011;17775;57.948;12.514;2024-03-06T05:56:15;1.48;;;1.00;;
31126;SDS011;17775;57.948;12.514;2024-03-06T05:59:00;1.65;;;1.10;;
31126;SDS011;17775;57.948;12.514;2024-03-06T06:01:31;1.42;;;1.20;;
31126;SDS011;17775;57.948;12.514;2024-03-06T06:03:57;1.17;;;0.98;;
31126;SDS011;17775;57.948;12.514;2024-03-06T06:06:24;1.35;;;0.90;;
31126;SDS011;17775;57.948;12.514;2024-03-06T06:08:50;1.45;;;1.00;;
31126;SDS011;17775;57.948;12.514;2024-03-06T06:11:16;1.73;;;1.23;;
31126;SDS011;17775;57.948;12.514;2024-03-06T06:13:43;2.08;;;1.10;;
31126;SDS011;17775;57.948;12.514;2024-03-06T06:16:10;2.17;;;1.20;;
31126;SDS011;17775;57.948;12.514;2024-03-06T06:18:36;1.55;;;1.00;;
31126;SDS011;17775;57.948;12.514;2024-03-06T06:21:03;1.55;;;0.90;;
31126;SDS011;17775;57.948;12.514;2024-03-06T06:26:00;1.90;;;1.20;;
31126;SDS011;17775;57.948;12.514;2024-03-06T06:28:26;2.95;;;1.17;;
31126;SDS011;17775;57.948;12.514;2024-03-06T06:30:53;1.48;;;0.93;;
31126;SDS011;17775;57.948;12.514;2024-03-06T06:33:19;1.30;;;0.90;;
31126;SDS011;17775;57.948;12.514;2024-03-06T06:35:47;0.93;;;0.80;;
31126;SDS011;17775;57.948;12.514;2024-03-06T06:38:13;1.70;;;1.00;;
31126;SDS011;17775;57.948;12.514;2024-03-06T06:40:40;1.98;;;1.10;;
31126;SDS011;17775;57.948;12.514;2024-03-06T06:43:10;2.28;;;1.40;;
31126;SDS011;17775;57.948;12.514;2024-03-06T06:45:37;1.80;;;1.20;;
31126;SDS011;17775;57.948;12.514;2024-03-06T06:48:04;2.45;;;1.30;;
31126;SDS011;17775;57.948;12.514;2024-03-06T06:50:31;2.35;;;1.50;;
31126;SDS011;17775;57.948;12.514;2024-03-06T06:52:59;2.72;;;1.50;;
31126;SDS011;17775;57.948;12.514;2024-03-06T06:55:26;4.13;;;1.80;;
31126;SDS011;17775;57.948;12.514;2024-03-06T06:57:53;2.65;;;1.67;;
31126;SDS011;17775;57.948;12.514;2024-03-06T07:00:20;2.65;;;1.45;;
31126;SDS011;17775;57.948;12.514;2024-03-06T07:02:49;2.60;;;1.50;;
31126;SDS011;17775;57.948;12.514;2024-03-06T07:05:15;3.85;;;1.50;;
31126;SDS011;17775;57.948;12.514;2024-03-06T07:07:42;2.70;;;1.50;;
31126;SDS011;17775;57.948;12.514;2024-03-06T07:10:09;1.85;;;1.20;;
31126;SDS011;17775;57.948;12.514;2024-03-06T07:12:35;1.88;;;1.10;;
31126;SDS011;17775;57.948;12.514;2024-03-06T07:15:02;2.08;;;1.33;;
31126;SDS011;17775;57.948;12.514;2024-03-06T07:17:29;1.63;;;1.10;;
31126;SDS011;17775;57.948;12.514;2024-03-06T07:19:55;2.15;;;1.45;;
31126;SDS011;17775;57.948;12.514;2024-03-06T07:22:23;1.90;;;1.20;;
31126;SDS011;17775;57.948;12.514;2024-03-06T07:24:49;2.38;;;1.25;;
31126;SDS011;17775;57.948;12.514;2024-03-06T07:27:16;1.17;;;0.90;;
31126;SDS011;17775;57.948;12.514;2024-03-06T07:29:42;1.70;;;1.10;;
31126;SDS011;17775;57.948;12.514;2024-03-06T07:32:09;1.70;;;1.17;;
31126;SDS011;17775;57.948;12.514;2024-03-06T07:34:35;1.63;;;1.02;;
31126;SDS011;17775;57.948;12.514;2024-03-06T07:37:02;2.88;;;1.10;;
31126;SDS011;17775;57.948;12.514;2024-03-06T07:39:31;2.60;;;1.20;;
31126;SDS011;17775;57.948;12.514;2024-03-06T07:41:58;1.85;;;1.33;;
31126;SDS011;17775;57.948;12.514;2024-03-06T07:44:24;2.38;;;1.27;;
31126;SDS011;17775;57.948;12.514;2024-03-06T07:46:51;1.25;;;0.75;;
31126;SDS011;17775;57.948;12.514;2024-03-06T07:49:19;1.40;;;0.93;;
31126;SDS011;17775;57.948;12.514;2024-03-06T07:51:48;1.35;;;0.95;;
31126;SDS011;17775;57.948;12.514;2024-03-06T07:54:14;1.10;;;0.90;;
31126;SDS011;17775;57.948;12.514;2024-03-06T07:56:43;1.67;;;1.10;;
31126;SDS011;17775;57.948;12.514;2024-03-06T07:59:10;2.00;;;1.20;;
31126;SDS011;17775;57.948;12.514;2024-03-06T08:01:39;1.60;;;1.10;;
31126;SDS011;17775;57.948;12.514;2024-03-06T08:04:05;1.73;;;1.10;;
31126;SDS011;17775;57.948;12.514;2024-03-06T08:06:32;1.88;;;1.10;;
31126;SDS011;17775;57.948;12.514;2024-03-06T08:08:59;2.20;;;1.30;;
31126;SDS011;17775;57.948;12.514;2024-03-06T08:11:28;1.85;;;1.20;;
31126;SDS011;17775;57.948;12.514;2024-03-06T08:13:58;1.63;;;1.10;;
31126;SDS011;17775;57.948;12.514;2024-03-06T08:16:25;1.80;;;1.10;;
31126;SDS011;17775;57.948;12.514;2024-03-06T08:18:52;2.17;;;1.20;;
31126;SDS011;17775;57.948;12.514;2024-03-06T08:21:18;1.38;;;0.98;;
31126;SDS011;17775;57.948;12.514;2024-03-06T08:23:46;1.92;;;1.20;;
31126;SDS011;17775;57.948;12.514;2024-03-06T08:26:13;1.75;;;1.23;;
31126;SDS011;17775;57.948;12.514;2024-03-06T08:28:40;2.20;;;1.20;;
31126;SDS011;17775;57.948;12.514;2024-03-06T08:31:06;1.85;;;1.00;;
31126;SDS011;17775;57.948;12.514;2024-03-06T08:33:34;1.63;;;1.00;;
31126;SDS011;17775;57.948;12.514;2024-03-06T08:36:01;1.17;;;0.80;;
31126;SDS011;17775;57.948;12.514;2024-03-06T08:38:28;1.58;;;1.10;;
31126;SDS011;17775;57.948;12.514;2024-03-06T08:40:54;1.75;;;1.17;;
31126;SDS011;17775;57.948;12.514;2024-03-06T08:43:21;2.80;;;1.65;;
31126;SDS011;17775;57.948;12.514;2024-03-06T08:45:48;2.22;;;1.45;;
31126;SDS011;17775;57.948;12.514;2024-03-06T08:48:14;2.20;;;1.30;;
31126;SDS011;17775;57.948;12.514;2024-03-06T08:50:41;1.48;;;0.93;;
31126;SDS011;17775;57.948;12.514;2024-03-06T08:53:07;2.13;;;1.30;;
31126;SDS011;17775;57.948;12.514;2024-03-06T08:55:36;1.45;;;1.00;;
31126;SDS011;17775;57.948;12.514;2024-03-06T08:58:02;1.80;;;1.20;;
31126;SDS011;17775;57.948;12.514;2024-03-06T09:00:28;2.13;;;1.33;;
31126;SDS011;17775;57.948;12.514;2024-03-06T09:02:55;1.50;;;0.93;;
31126;SDS011;17775;57.948;12.514;2024-03-06T09:05:21;1.35;;;0.98;;
31126;SDS011;17775;57.948;12.514;2024-03-06T09:07:50;1.38;;;0.82;;
31126;SDS011;17775;57.948;12.514;2024-03-06T09:10:17;2.03;;;1.10;;
31126;SDS011;17775;57.948;12.514;2024-03-06T09:12:45;1.73;;;0.90;;
31126;SDS011;17775;57.948;12.514;2024-03-06T09:15:12;1.65;;;0.90;;
31126;SDS011;17775;57.948;12.514;2024-03-06T09:17:38;2.15;;;1.20;;
31126;SDS011;17775;57.948;12.514;2024-03-06T09:20:05;1.67;;;1.02;;
31126;SDS011;17775;57.948;12.514;2024-03-06T09:22:37;2.13;;;1.40;;
31126;SDS011;17775;57.948;12.514;2024-03-06T09:25:05;1.58;;;1.05;;
31126;SDS011;17775;57.948;12.514;2024-03-06T09:27:32;2.05;;;1.35;;
31126;SDS011;17775;57.948;12.514;2024-03-06T09:29:58;2.33;;;1.70;;
31126;SDS011;17775;57.948;12.514;2024-03-06T09:32:25;2.92;;;1.77;;
31126;SDS011;17775;57.948;12.514;2024-03-06T09:34:55;3.00;;;2.00;;
31126;SDS011;17775;57.948;12.514;2024-03-06T09:37:22;3.50;;;2.13;;
31126;SDS011;17775;57.948;12.514;2024-03-06T09:39:48;2.60;;;1.60;;
31126;SDS011;17775;57.948;12.514;2024-03-06T09:42:15;2.22;;;1.40;;
31126;SDS011;17775;57.948;12.514;2024-03-06T09:44:41;2.80;;;1.80;;
31126;SDS011;17775;57.948;12.514;2024-03-06T09:47:08;2.58;;;1.50;;
31126;SDS011;17775;57.948;12.514;2024-03-06T09:49:38;2.80;;;1.70;;
31126;SDS011;17775;57.948;12.514;2024-03-06T09:52:05;2.78;;;1.67;;
31126;SDS011;17775;57.948;12.514;2024-03-06T09:54:32;2.33;;;1.50;;
31126;SDS011;17775;57.948;12.514;2024-03-06T09:56:58;2.85;;;1.60;;
31126;SDS011;17775;57.948;12.514;2024-03-06T09:59:25;1.90;;;1.20;;
31126;SDS011;17775;57.948;12.514;2024-03-06T10:01:55;2.35;;;1.55;;
31126;SDS011;17775;57.948;12.514;2024-03-06T10:04:23;2.47;;;1.35;;
31126;SDS011;17775;57.948;12.514;2024-03-06T10:06:59;1.73;;;1.30;;
31126;SDS011;17775;57.948;12.514;2024-03-06T10:09:26;2.13;;;1.35;;
31126;SDS011;17775;57.948;12.514;2024-03-06T10:11:53;2.35;;;1.50;;
31126;SDS011;17775;57.948;12.514;2024-03-06T10:14:20;1.80;;;1.15;;
31126;SDS011;17775;57.948;12.514;2024-03-06T10:16:53;1.80;;;1.27;;
31126;SDS011;17775;57.948;12.514;2024-03-06T10:19:20;2.03;;;1.27;;
31126;SDS011;17775;57.948;12.514;2024-03-06T10:21:47;2.30;;;1.40;;
31126;SDS011;17775;57.948;12.514;2024-03-06T10:24:18;2.65;;;1.58;;
31126;SDS011;17775;57.948;12.514;2024-03-06T10:26:45;1.75;;;1.27;;
31126;SDS011;17775;57.948;12.514;2024-03-06T10:29:14;1.98;;;1.23;;
31126;SDS011;17775;57.948;12.514;2024-03-06T10:31:41;2.00;;;1.40;;
31126;SDS011;17775;57.948;12.514;2024-03-06T10:34:11;2.28;;;1.13;;
31126;SDS011;17775;57.948;12.514;2024-03-06T10:36:37;1.33;;;1.00;;
31126;SDS011;17775;57.948;12.514;2024-03-06T10:39:04;2.38;;;1.30;;
31126;SDS011;17775;57.948;12.514;2024-03-06T10:41:33;2.08;;;1.25;;
31126;SDS011;17775;57.948;12.514;2024-03-06T10:44:01;3.67;;;1.50;;
31126;SDS011;17775;57.948;12.514;2024-03-06T10:46:28;3.03;;;1.55;;
31126;SDS011;17775;57.948;12.514;2024-03-06T10:48:55;2.65;;;1.70;;
31126;SDS011;17775;57.948;12.514;2024-03-06T10:51:24;2.55;;;1.60;;
31126;SDS011;17775;57.948;12.514;2024-03-06T10:53:52;1.88;;;1.40;;
31126;SDS011;17775;57.948;12.514;2024-03-06T10:56:19;2.42;;;1.52;;
31126;SDS011;17775;57.948;12.514;2024-03-06T10:58:47;2.42;;;1.30;;
31126;SDS011;17775;57.948;12.514;2024-03-06T11:01:16;2.53;;;1.75;;
31126;SDS011;17775;57.948;12.514;2024-03-06T11:03:43;2.75;;;1.63;;
31126;SDS011;17775;57.948;12.514;2024-03-06T11:06:10;3.22;;;1.65;;
31126;SDS011;17775;57.948;12.514;2024-03-06T11:08:36;2.75;;;1.70;;
31126;SDS011;17775;57.948;12.514;2024-03-06T11:13:55;1.60;;;1.10;;
31126;SDS011;17775;57.948;12.514;2024-03-06T11:16:28;2.33;;;1.40;;
31126;SDS011;17775;57.948;12.514;2024-03-06T11:26:35;2.42;;;1.60;;
31126;SDS011;17775;57.948;12.514;2024-03-06T11:29:01;2.38;;;1.67;;
31126;SDS011;17775;57.948;12.514;2024-03-06T11:31:28;2.08;;;1.38;;
31126;SDS011;17775;57.948;12.514;2024-03-06T11:33:55;1.80;;;1.33;;
31126;SDS011;17775;57.948;12.514;2024-03-06T11:36:23;1.10;;;0.95;;
31126;SDS011;17775;57.948;12.514;2024-03-06T11:38:57;1.85;;;1.42;;
31126;SDS011;17775;57.948;12.514;2024-03-06T11:41:26;1.52;;;0.95;;
31126;SDS011;17775;57.948;12.514;2024-03-06T11:43:54;1.40;;;1.00;;
31126;SDS011;17775;57.948;12.514;2024-03-06T11:46:22;1.10;;;1.00;;
31126;SDS011;17775;57.948;12.514;2024-03-06T11:48:52;2.10;;;1.00;;
31126;SDS011;17775;57.948;12.514;2024-03-06T11:51:20;1.83;;;1.33;;
31126;SDS011;17775;57.948;12.514;2024-03-06T11:53:49;1.88;;;1.10;;
31126;SDS011;17775;57.948;12.514;2024-03-06T11:56:16;2.10;;;1.40;;
31126;SDS011;17775;57.948;12.514;2024-03-06T11:58:46;2.42;;;1.17;;
31126;SDS011;17775;57.948;12.514;2024-03-06T12:01:15;2.08;;;1.30;;
31126;SDS011;17775;57.948;12.514;2024-03-06T12:03:42;1.15;;;0.88;;
31126;SDS011;17775;57.948;12.514;2024-03-06T12:06:09;1.58;;;0.98;;
31126;SDS011;17775;57.948;12.514;2024-03-06T12:08:36;1.77;;;1.05;;
31126;SDS011;17775;57.948;12.514;2024-03-06T12:11:05;1.50;;;1.10;;
31126;SDS011;17775;57.948;12.514;2024-03-06T12:13:32;1.08;;;0.90;;
31126;SDS011;17775;57.948;12.514;2024-03-06T12:15:58;1.10;;;0.90;;
31126;SDS011;17775;57.948;12.514;2024-03-06T12:18:29;1.48;;;1.10;;
31126;SDS011;17775;57.948;12.514;2024-03-06T12:20:59;1.65;;;0.98;;
31126;SDS011;17775;57.948;12.514;2024-03-06T12:23:26;1.92;;;1.00;;
31126;SDS011;17775;57.948;12.514;2024-03-06T12:28:48;1.05;;;0.80;;
31126;SDS011;17775;57.948;12.514;2024-03-06T12:31:15;0.75;;;0.60;;
31126;SDS011;17775;57.948;12.514;2024-03-06T12:33:41;0.98;;;0.88;;
31126;SDS011;17775;57.948;12.514;2024-03-06T12:36:08;0.98;;;0.88;;
31126;SDS011;17775;57.948;12.514;2024-03-06T12:38:39;1.17;;;1.00;;
31126;SDS011;17775;57.948;12.514;2024-03-06T12:41:05;1.00;;;0.68;;
31126;SDS011;17775;57.948;12.514;2024-03-06T12:43:32;1.08;;;0.73;;
31126;SDS011;17775;57.948;12.514;2024-03-06T12:46:01;1.52;;;0.80;;
31126;SDS011;17775;57.948;12.514;2024-03-06T12:48:31;1.00;;;0.80;;
31126;SDS011;17775;57.948;12.514;2024-03-06T12:50:57;0.63;;;0.63;;
31126;SDS011;17775;57.948;12.514;2024-03-06T12:53:31;1.08;;;0.90;;
31126;SDS011;17775;57.948;12.514;2024-03-06T12:56:01;1.23;;;0.90;;
31126;SDS011;17775;57.948;12.514;2024-03-06T12:58:28;1.10;;;0.80;;
31126;SDS011;17775;57.948;12.514;2024-03-06T13:00:57;0.90;;;0.60;;
31126;SDS011;17775;57.948;12.514;2024-03-06T13:03:25;0.95;;;0.80;;
31126;SDS011;17775;57.948;12.514;2024-03-06T13:05:51;1.23;;;0.77;;
31126;SDS011;17775;57.948;12.514;2024-03-06T13:08:17;0.65;;;0.50;;
31126;SDS011;17775;57.948;12.514;2024-03-06T13:10:44;1.30;;;0.63;;
31126;SDS011;17775;57.948;12.514;2024-03-06T13:13:11;0.88;;;0.80;;
31126;SDS011;17775;57.948;12.514;2024-03-06T13:15:38;0.77;;;0.52;;
31126;SDS011;17775;57.948;12.514;2024-03-06T13:18:04;1.10;;;0.60;;
31126;SDS011;17775;57.948;12.514;2024-03-06T13:20:32;1.00;;;0.80;;
31126;SDS011;17775;57.948;12.514;2024-03-06T13:22:58;0.88;;;0.80;;
31126;SDS011;17775;57.948;12.514;2024-03-06T13:25:25;1.20;;;0.77;;
31126;SDS011;17775;57.948;12.514;2024-03-06T13:27:52;1.67;;;1.00;;
31126;SDS011;17775;57.948;12.514;2024-03-06T13:30:18;0.93;;;0.80;;
31126;SDS011;17775;57.948;12.514;2024-03-06T13:32:45;0.75;;;0.70;;
31126;SDS011;17775;57.948;12.514;2024-03-06T13:35:12;0.90;;;0.75;;
31126;SDS011;17775;57.948;12.514;2024-03-06T13:37:40;0.73;;;0.65;;
31126;SDS011;17775;57.948;12.514;2024-03-06T13:40:07;0.52;;;0.52;;
31126;SDS011;17775;57.948;12.514;2024-03-06T13:42:35;0.85;;;0.80;;
31126;SDS011;17775;57.948;12.514;2024-03-06T13:45:01;0.95;;;0.60;;
31126;SDS011;17775;57.948;12.514;2024-03-06T13:47:28;0.68;;;0.68;;
31126;SDS011;17775;57.948;12.514;2024-03-06T13:49:55;0.90;;;0.70;;
31126;SDS011;17775;57.948;12.514;2024-03-06T13:52:22;0.80;;;0.60;;
31126;SDS011;17775;57.948;12.514;2024-03-06T13:54:51;0.88;;;0.55;;
31126;SDS011;17775;57.948;12.514;2024-03-06T13:57:17;0.82;;;0.70;;
31126;SDS011;17775;57.948;12.514;2024-03-06T13:59:44;0.98;;;0.60;;
31126;SDS011;17775;57.948;12.514;2024-03-06T14:02:10;0.90;;;0.75;;
31126;SDS011;17775;57.948;12.514;2024-03-06T14:04:40;0.70;;;0.60;;
31126;SDS011;17775;57.948;12.514;2024-03-06T14:07:06;0.45;;;0.40;;
31126;SDS011;17775;57.948;12.514;2024-03-06T14:09:33;1.30;;;0.65;;
31126;SDS011;17775;57.948;12.514;2024-03-06T14:12:00;0.80;;;0.60;;
31126;SDS011;17775;57.948;12.514;2024-03-06T14:14:27;1.05;;;0.65;;
31126;SDS011;17775;57.948;12.514;2024-03-06T14:16:53;0.75;;;0.52;;
31126;SDS011;17775;57.948;12.514;2024-03-06T14:19:20;0.95;;;0.70;;
31126;SDS011;17775;57.948;12.514;2024-03-06T14:21:48;1.40;;;0.75;;
31126;SDS011;17775;57.948;12.514;2024-03-06T14:24:15;0.85;;;0.70;;
31126;SDS011;17775;57.948;12.514;2024-03-06T14:26:41;1.00;;;0.70;;
31126;SDS011;17775;57.948;12.514;2024-03-06T14:29:08;0.80;;;0.65;;
31126;SDS011;17775;57.948;12.514;2024-03-06T14:31:36;1.20;;;0.70;;
31126;SDS011;17775;57.948;12.514;2024-03-06T14:34:02;0.90;;;0.73;;
31126;SDS011;17775;57.948;12.514;2024-03-06T14:36:32;1.52;;;0.70;;
31126;SDS011;17775;57.948;12.514;2024-03-06T14:39:00;0.70;;;0.60;;
31126;SDS011;17775;57.948;12.514;2024-03-06T14:41:26;0.93;;;0.65;;
31126;SDS011;17775;57.948;12.514;2024-03-06T14:43:53;0.70;;;0.60;;
31126;SDS011;17775;57.948;12.514;2024-03-06T14:46:20;0.55;;;0.55;;
31126;SDS011;17775;57.948;12.514;2024-03-06T14:48:46;0.85;;;0.50;;
31126;SDS011;17775;57.948;12.514;2024-03-06T14:51:13;0.85;;;0.60;;
31126;SDS011;17775;57.948;12.514;2024-03-06T14:53:39;0.70;;;0.70;;
31126;SDS011;17775;57.948;12.514;2024-03-06T14:56:10;1.13;;;0.70;;
31126;SDS011;17775;57.948;12.514;2024-03-06T14:58:37;0.60;;;0.60;;